sensor_id;sensor_type;location;lat;lon;timestamp;P1;durP1;ratioP1;P2;durP2;ratioP2
76795;SDS011;65745;50.278;18.192;2023-04-01T00:01:23;5.90;;;4.30;;
76795;SDS011;65745;50.278;18.192;2023-04-01T00:03:56;8.70;;;4.30;;
76795;SDS011;65745;50.278;18.192;2023-04-01T00:06:31;5.00;;;4.50;;
76795;SDS011;65745;50.278;18.192;2023-04-01T00:09:03;6.60;;;4.40;;
76795;SDS011;65745;50.278;18.192;2023-04-01T00:11:35;7.90;;;5.30;;
76795;SDS011;65745;50.278;18.192;2023-04-01T00:14:07;11.00;;;7.50;;
76795;SDS011;65745;50.278;18.192;2023-04-01T00:16:40;9.10;;;7.60;;
76795;SDS011;65745;50.278;18.192;2023-04-01T00:19:12;10.40;;;7.70;;
76795;SDS011;65745;50.278;18.192;2023-04-01T00:21:45;12.80;;;9.00;;
76795;SDS011;65745;50.278;18.192;2023-04-01T00:24:17;17.10;;;12.10;;
76795;SDS011;65745;50.278;18.192;2023-04-01T00:26:49;15.80;;;8.70;;
76795;SDS011;65745;50.278;18.192;2023-04-01T00:29:21;8.70;;;6.60;;
76795;SDS011;65745;50.278;18.192;2023-04-01T00:31:58;8.10;;;5.80;;
76795;SDS011;65745;50.278;18.192;2023-04-01T00:34:30;7.90;;;5.90;;
76795;SDS011;65745;50.278;18.192;2023-04-01T00:37:02;6.60;;;5.00;;
76795;SDS011;65745;50.278;18.192;2023-04-01T00:39:34;7.90;;;5.90;;
76795;SDS011;65745;50.278;18.192;2023-04-01T00:42:08;5.00;;;3.60;;
76795;SDS011;65745;50.278;18.192;2023-04-01T00:44:42;7.20;;;5.40;;
76795;SDS011;65745;50.278;18.192;2023-04-01T00:47:19;5.10;;;3.90;;
76795;SDS011;65745;50.278;18.192;2023-04-01T00:49:52;5.60;;;4.90;;
76795;SDS011;65745;50.278;18.192;2023-04-01T00:52:25;6.50;;;4.50;;
76795;SDS011;65745;50.278;18.192;2023-04-01T00:54:58;7.10;;;4.70;;
76795;SDS011;65745;50.278;18.192;2023-04-01T00:57:34;6.00;;;4.60;;
76795;SDS011;65745;50.278;18.192;2023-04-01T01:00:09;6.60;;;6.00;;
76795;SDS011;65745;50.278;18.192;2023-04-01T01:02:44;7.30;;;5.30;;
76795;SDS011;65745;50.278;18.192;2023-04-01T01:05:18;5.60;;;4.60;;
76795;SDS011;65745;50.278;18.192;2023-04-01T01:08:10;8.00;;;5.60;;
76795;SDS011;65745;50.278;18.192;2023-04-01T01:10:49;7.00;;;5.00;;
76795;SDS011;65745;50.278;18.192;2023-04-01T01:13:22;8.90;;;6.40;;
76795;SDS011;65745;50.278;18.192;2023-04-01T01:16:03;10.80;;;8.50;;
76795;SDS011;65745;50.278;18.192;2023-04-01T01:18:41;7.90;;;6.00;;
76795;SDS011;65745;50.278;18.192;2023-04-01T01:21:28;7.70;;;4.90;;
76795;SDS011;65745;50.278;18.192;2023-04-01T01:24:23;5.00;;;4.20;;
76795;SDS011;65745;50.278;18.192;2023-04-01T01:27:12;12.10;;;7.30;;
76795;SDS011;65745;50.278;18.192;2023-04-01T01:30:07;8.00;;;6.10;;
76795;SDS011;65745;50.278;18.192;2023-04-01T01:35:54;12.10;;;7.80;;
76795;SDS011;65745;50.278;18.192;2023-04-01T01:38:31;11.50;;;7.40;;
76795;SDS011;65745;50.278;18.192;2023-04-01T01:41:06;10.80;;;7.80;;
76795;SDS011;65745;50.278;18.192;2023-04-01T01:43:41;14.30;;;8.30;;
76795;SDS011;65745;50.278;18.192;2023-04-01T01:46:18;12.30;;;8.20;;
76795;SDS011;65745;50.278;18.192;2023-04-01T01:48:54;15.40;;;9.30;;
76795;SDS011;65745;50.278;18.192;2023-04-01T01:51:29;12.90;;;7.90;;
76795;SDS011;65745;50.278;18.192;2023-04-01T01:54:03;10.70;;;7.60;;
76795;SDS011;65745;50.278;18.192;2023-04-01T01:56:35;11.60;;;6.90;;
76795;SDS011;65745;50.278;18.192;2023-04-01T01:59:08;10.20;;;5.80;;
76795;SDS011;65745;50.278;18.192;2023-04-01T02:01:45;8.70;;;6.30;;
76795;SDS011;65745;50.278;18.192;2023-04-01T02:04:20;9.40;;;6.10;;
76795;SDS011;65745;50.278;18.192;2023-04-01T02:06:55;6.50;;;4.90;;
76795;SDS011;65745;50.278;18.192;2023-04-01T02:09:32;6.60;;;5.00;;
76795;SDS011;65745;50.278;18.192;2023-04-01T02:12:06;6.90;;;4.80;;
76795;SDS011;65745;50.278;18.192;2023-04-01T02:17:14;8.20;;;5.40;;
76795;SDS011;65745;50.278;18.192;2023-04-01T02:19:49;10.90;;;6.50;;
76795;SDS011;65745;50.278;18.192;2023-04-01T02:22:26;8.50;;;5.90;;
76795;SDS011;65745;50.278;18.192;2023-04-01T02:25:03;10.80;;;6.50;;
76795;SDS011;65745;50.278;18.192;2023-04-01T02:27:38;9.90;;;6.10;;
76795;SDS011;65745;50.278;18.192;2023-04-01T02:30:13;8.40;;;6.00;;
76795;SDS011;65745;50.278;18.192;2023-04-01T02:32:48;10.90;;;6.80;;
76795;SDS011;65745;50.278;18.192;2023-04-01T02:35:21;8.70;;;5.60;;
76795;SDS011;65745;50.278;18.192;2023-04-01T02:37:55;8.00;;;5.70;;
76795;SDS011;65745;50.278;18.192;2023-04-01T02:40:28;10.40;;;6.60;;
76795;SDS011;65745;50.278;18.192;2023-04-01T02:43:10;11.50;;;7.30;;
76795;SDS011;65745;50.278;18.192;2023-04-01T02:45:42;10.10;;;7.30;;
76795;SDS011;65745;50.278;18.192;2023-04-01T02:48:15;8.20;;;6.10;;
76795;SDS011;65745;50.278;18.192;2023-04-01T02:50:47;8.70;;;4.90;;
76795;SDS011;65745;50.278;18.192;2023-04-01T02:53:19;7.20;;;4.60;;
76795;SDS011;65745;50.278;18.192;2023-04-01T02:55:52;6.90;;;5.30;;
76795;SDS011;65745;50.278;18.192;2023-04-01T02:58:24;8.00;;;6.60;;
76795;SDS011;65745;50.278;18.192;2023-04-01T03:00:57;10.80;;;7.50;;
76795;SDS011;65745;50.278;18.192;2023-04-01T03:03:29;22.70;;;15.40;;
76795;SDS011;65745;50.278;18.192;2023-04-01T03:06:05;16.00;;;10.10;;
76795;SDS011;65745;50.278;18.192;2023-04-01T03:08:38;12.20;;;7.40;;
76795;SDS011;65745;50.278;18.192;2023-04-01T03:11:11;8.90;;;6.30;;
76795;SDS011;65745;50.278;18.192;2023-04-01T03:13:44;7.90;;;4.80;;
76795;SDS011;65745;50.278;18.192;2023-04-01T03:16:17;6.90;;;5.30;;
76795;SDS011;65745;50.278;18.192;2023-04-01T03:18:49;8.20;;;6.40;;
76795;SDS011;65745;50.278;18.192;2023-04-01T03:21:23;12.60;;;9.20;;
76795;SDS011;65745;50.278;18.192;2023-04-01T03:23:56;14.70;;;9.60;;
76795;SDS011;65745;50.278;18.192;2023-04-01T03:26:30;10.20;;;8.30;;
76795;SDS011;65745;50.278;18.192;2023-04-01T03:29:02;7.70;;;6.10;;
76795;SDS011;65745;50.278;18.192;2023-04-01T03:31:34;8.50;;;6.70;;
76795;SDS011;65745;50.278;18.192;2023-04-01T03:34:06;8.30;;;6.50;;
76795;SDS011;65745;50.278;18.192;2023-04-01T03:36:38;7.80;;;6.00;;
76795;SDS011;65745;50.278;18.192;2023-04-01T03:39:11;9.90;;;7.10;;
76795;SDS011;65745;50.278;18.192;2023-04-01T03:41:43;12.00;;;8.20;;
76795;SDS011;65745;50.278;18.192;2023-04-01T03:44:15;9.30;;;6.60;;
76795;SDS011;65745;50.278;18.192;2023-04-01T03:46:49;8.50;;;6.60;;
76795;SDS011;65745;50.278;18.192;2023-04-01T03:49:21;8.00;;;5.60;;
76795;SDS011;65745;50.278;18.192;2023-04-01T03:51:53;8.50;;;4.80;;
76795;SDS011;65745;50.278;18.192;2023-04-01T03:54:25;6.80;;;4.30;;
76795;SDS011;65745;50.278;18.192;2023-04-01T03:56:57;7.60;;;4.80;;
76795;SDS011;65745;50.278;18.192;2023-04-01T03:59:30;7.30;;;4.70;;
76795;SDS011;65745;50.278;18.192;2023-04-01T04:02:02;7.80;;;6.30;;
76795;SDS011;65745;50.278;18.192;2023-04-01T04:04:35;9.00;;;4.40;;
76795;SDS011;65745;50.278;18.192;2023-04-01T04:07:07;4.20;;;3.50;;
76795;SDS011;65745;50.278;18.192;2023-04-01T04:10:06;6.60;;;4.30;;
76795;SDS011;65745;50.278;18.192;2023-04-01T04:12:39;7.20;;;4.50;;
76795;SDS011;65745;50.278;18.192;2023-04-01T04:15:11;6.50;;;4.70;;
76795;SDS011;65745;50.278;18.192;2023-04-01T04:17:45;7.10;;;5.40;;
76795;SDS011;65745;50.278;18.192;2023-04-01T04:20:17;7.70;;;5.80;;
76795;SDS011;65745;50.278;18.192;2023-04-01T04:22:49;9.00;;;5.80;;
76795;SDS011;65745;50.278;18.192;2023-04-01T04:25:21;7.70;;;5.50;;
76795;SDS011;65745;50.278;18.192;2023-04-01T04:27:54;8.80;;;5.20;;
76795;SDS011;65745;50.278;18.192;2023-04-01T04:30:26;11.80;;;7.70;;
76795;SDS011;65745;50.278;18.192;2023-04-01T04:32:58;12.20;;;7.40;;
76795;SDS011;65745;50.278;18.192;2023-04-01T04:35:31;7.00;;;5.30;;
76795;SDS011;65745;50.278;18.192;2023-04-01T04:38:04;6.40;;;5.00;;
76795;SDS011;65745;50.278;18.192;2023-04-01T04:40:37;6.40;;;4.30;;
76795;SDS011;65745;50.278;18.192;2023-04-01T04:43:11;6.60;;;4.70;;
76795;SDS011;65745;50.278;18.192;2023-04-01T04:45:45;5.10;;;4.20;;
76795;SDS011;65745;50.278;18.192;2023-04-01T04:48:17;5.20;;;4.10;;
76795;SDS011;65745;50.278;18.192;2023-04-01T04:50:50;5.20;;;4.10;;
76795;SDS011;65745;50.278;18.192;2023-04-01T04:53:24;5.50;;;4.30;;
76795;SDS011;65745;50.278;18.192;2023-04-01T04:55:56;5.50;;;4.50;;
76795;SDS011;65745;50.278;18.192;2023-04-01T04:58:44;6.40;;;4.30;;
76795;SDS011;65745;50.278;18.192;2023-04-01T05:03:51;8.00;;;5.80;;
76795;SDS011;65745;50.278;18.192;2023-04-01T05:06:24;10.90;;;6.70;;
76795;SDS011;65745;50.278;18.192;2023-04-01T05:08:58;8.40;;;6.10;;
76795;SDS011;65745;50.278;18.192;2023-04-01T05:11:30;8.20;;;6.30;;
76795;SDS011;65745;50.278;18.192;2023-04-01T05:14:02;9.60;;;4.80;;
76795;SDS011;65745;50.278;18.192;2023-04-01T05:16:35;8.50;;;4.80;;
76795;SDS011;65745;50.278;18.192;2023-04-01T05:19:07;6.70;;;4.10;;
76795;SDS011;65745;50.278;18.192;2023-04-01T05:21:39;6.30;;;4.40;;
76795;SDS011;65745;50.278;18.192;2023-04-01T05:24:12;7.10;;;4.80;;
76795;SDS011;65745;50.278;18.192;2023-04-01T05:26:44;6.90;;;5.00;;
76795;SDS011;65745;50.278;18.192;2023-04-01T05:29:17;6.90;;;4.80;;
76795;SDS011;65745;50.278;18.192;2023-04-01T05:31:51;7.90;;;5.50;;
76795;SDS011;65745;50.278;18.192;2023-04-01T05:34:23;8.50;;;5.90;;
76795;SDS011;65745;50.278;18.192;2023-04-01T05:36:55;9.50;;;6.80;;
76795;SDS011;65745;50.278;18.192;2023-04-01T05:39:28;12.90;;;7.40;;
76795;SDS011;65745;50.278;18.192;2023-04-01T05:42:00;10.70;;;7.60;;
76795;SDS011;65745;50.278;18.192;2023-04-01T05:44:33;11.60;;;8.30;;
76795;SDS011;65745;50.278;18.192;2023-04-01T05:47:08;12.80;;;9.00;;
76795;SDS011;65745;50.278;18.192;2023-04-01T05:49:40;8.50;;;6.80;;
76795;SDS011;65745;50.278;18.192;2023-04-01T05:52:12;11.50;;;5.90;;
76795;SDS011;65745;50.278;18.192;2023-04-01T05:54:45;6.60;;;4.60;;
76795;SDS011;65745;50.278;18.192;2023-04-01T05:57:17;6.60;;;5.00;;
76795;SDS011;65745;50.278;18.192;2023-04-01T05:59:50;6.20;;;4.20;;
76795;SDS011;65745;50.278;18.192;2023-04-01T06:02:22;6.60;;;3.70;;
76795;SDS011;65745;50.278;18.192;2023-04-01T06:04:57;5.20;;;4.00;;
76795;SDS011;65745;50.278;18.192;2023-04-01T06:07:41;7.60;;;4.10;;
76795;SDS011;65745;50.278;18.192;2023-04-01T06:10:14;6.10;;;5.00;;
76795;SDS011;65745;50.278;18.192;2023-04-01T06:12:52;9.20;;;6.40;;
76795;SDS011;65745;50.278;18.192;2023-04-01T06:15:38;8.70;;;6.40;;
76795;SDS011;65745;50.278;18.192;2023-04-01T06:21:33;8.50;;;5.10;;
76795;SDS011;65745;50.278;18.192;2023-04-01T06:24:28;7.80;;;5.30;;
76795;SDS011;65745;50.278;18.192;2023-04-01T06:27:13;9.50;;;6.00;;
76795;SDS011;65745;50.278;18.192;2023-04-01T06:30:06;9.10;;;7.00;;
76795;SDS011;65745;50.278;18.192;2023-04-01T06:33:08;13.90;;;8.50;;
76795;SDS011;65745;50.278;18.192;2023-04-01T06:36:06;15.70;;;6.60;;
76795;SDS011;65745;50.278;18.192;2023-04-01T06:39:05;6.60;;;3.40;;
76795;SDS011;65745;50.278;18.192;2023-04-01T06:42:00;12.80;;;5.30;;
76795;SDS011;65745;50.278;18.192;2023-04-01T06:45:11;10.50;;;4.90;;
76795;SDS011;65745;50.278;18.192;2023-04-01T06:48:24;14.40;;;5.90;;
76795;SDS011;65745;50.278;18.192;2023-04-01T06:51:34;14.40;;;5.10;;
76795;SDS011;65745;50.278;18.192;2023-04-01T06:54:36;3.50;;;3.00;;
76795;SDS011;65745;50.278;18.192;2023-04-01T06:57:31;6.00;;;3.20;;
76795;SDS011;65745;50.278;18.192;2023-04-01T07:00:13;5.60;;;3.10;;
76795;SDS011;65745;50.278;18.192;2023-04-01T07:02:50;4.20;;;3.20;;
76795;SDS011;65745;50.278;18.192;2023-04-01T07:05:33;4.80;;;2.90;;
76795;SDS011;65745;50.278;18.192;2023-04-01T07:08:08;3.70;;;2.80;;
76795;SDS011;65745;50.278;18.192;2023-04-01T07:10:45;4.00;;;3.40;;
76795;SDS011;65745;50.278;18.192;2023-04-01T07:13:41;4.50;;;2.70;;
76795;SDS011;65745;50.278;18.192;2023-04-01T07:16:19;5.40;;;2.80;;
76795;SDS011;65745;50.278;18.192;2023-04-01T07:18:59;4.20;;;2.40;;
76795;SDS011;65745;50.278;18.192;2023-04-01T07:21:48;3.40;;;2.60;;
76795;SDS011;65745;50.278;18.192;2023-04-01T07:24:33;5.30;;;2.70;;
76795;SDS011;65745;50.278;18.192;2023-04-01T07:27:10;4.10;;;2.40;;
76795;SDS011;65745;50.278;18.192;2023-04-01T07:29:45;3.10;;;1.80;;
76795;SDS011;65745;50.278;18.192;2023-04-01T07:32:25;4.50;;;2.40;;
76795;SDS011;65745;50.278;18.192;2023-04-01T07:35:12;2.40;;;1.60;;
76795;SDS011;65745;50.278;18.192;2023-04-01T07:40:45;3.10;;;2.20;;
76795;SDS011;65745;50.278;18.192;2023-04-01T07:43:32;3.60;;;2.30;;
76795;SDS011;65745;50.278;18.192;2023-04-01T07:46:33;2.40;;;1.90;;
76795;SDS011;65745;50.278;18.192;2023-04-01T07:49:17;2.30;;;1.80;;
76795;SDS011;65745;50.278;18.192;2023-04-01T07:52:00;2.90;;;1.70;;
76795;SDS011;65745;50.278;18.192;2023-04-01T07:54:39;3.20;;;1.80;;
76795;SDS011;65745;50.278;18.192;2023-04-01T07:57:19;2.30;;;1.70;;
76795;SDS011;65745;50.278;18.192;2023-04-01T07:59:58;2.60;;;1.90;;
76795;SDS011;65745;50.278;18.192;2023-04-01T08:02:59;2.40;;;1.90;;
76795;SDS011;65745;50.278;18.192;2023-04-01T08:05:49;2.20;;;1.70;;
76795;SDS011;65745;50.278;18.192;2023-04-01T08:08:29;2.00;;;1.40;;
76795;SDS011;65745;50.278;18.192;2023-04-01T08:11:31;2.10;;;1.80;;
76795;SDS011;65745;50.278;18.192;2023-04-01T08:14:32;3.90;;;1.70;;
76795;SDS011;65745;50.278;18.192;2023-04-01T08:17:19;2.20;;;1.60;;
76795;SDS011;65745;50.278;18.192;2023-04-01T08:20:03;5.10;;;2.40;;
76795;SDS011;65745;50.278;18.192;2023-04-01T08:22:48;4.70;;;2.40;;
76795;SDS011;65745;50.278;18.192;2023-04-01T08:25:32;3.60;;;1.50;;
76795;SDS011;65745;50.278;18.192;2023-04-01T08:28:11;1.50;;;1.10;;
76795;SDS011;65745;50.278;18.192;2023-04-01T08:33:24;1.70;;;1.30;;
76795;SDS011;65745;50.278;18.192;2023-04-01T08:36:05;1.50;;;1.20;;
76795;SDS011;65745;50.278;18.192;2023-04-01T08:38:41;1.90;;;1.20;;
76795;SDS011;65745;50.278;18.192;2023-04-01T08:41:30;1.50;;;1.10;;
76795;SDS011;65745;50.278;18.192;2023-04-01T08:51:05;2.40;;;1.80;;
76795;SDS011;65745;50.278;18.192;2023-04-01T08:54:13;2.00;;;1.40;;
76795;SDS011;65745;50.278;18.192;2023-04-01T08:57:03;3.00;;;1.60;;
76795;SDS011;65745;50.278;18.192;2023-04-01T09:00:07;2.40;;;1.40;;
76795;SDS011;65745;50.278;18.192;2023-04-01T09:06:28;3.60;;;2.30;;
76795;SDS011;65745;50.278;18.192;2023-04-01T09:09:21;2.30;;;1.80;;
76795;SDS011;65745;50.278;18.192;2023-04-01T09:12:29;3.30;;;1.90;;
76795;SDS011;65745;50.278;18.192;2023-04-01T09:15:21;2.90;;;2.00;;
76795;SDS011;65745;50.278;18.192;2023-04-01T09:18:26;3.20;;;2.20;;
76795;SDS011;65745;50.278;18.192;2023-04-01T09:21:19;2.70;;;1.70;;
76795;SDS011;65745;50.278;18.192;2023-04-01T09:27:08;2.60;;;1.70;;
76795;SDS011;65745;50.278;18.192;2023-04-01T09:30:10;1.70;;;1.40;;
76795;SDS011;65745;50.278;18.192;2023-04-01T09:33:09;2.40;;;1.80;;
76795;SDS011;65745;50.278;18.192;2023-04-01T09:36:11;3.10;;;1.80;;
76795;SDS011;65745;50.278;18.192;2023-04-01T09:38:54;2.00;;;1.40;;
76795;SDS011;65745;50.278;18.192;2023-04-01T09:41:31;2.30;;;1.40;;
76795;SDS011;65745;50.278;18.192;2023-04-01T09:47:19;2.80;;;2.10;;
76795;SDS011;65745;50.278;18.192;2023-04-01T09:50:16;2.60;;;1.80;;
76795;SDS011;65745;50.278;18.192;2023-04-01T09:53:03;3.30;;;1.80;;
76795;SDS011;65745;50.278;18.192;2023-04-01T09:55:58;5.40;;;2.70;;
76795;SDS011;65745;50.278;18.192;2023-04-01T10:05:49;3.10;;;2.00;;
76795;SDS011;65745;50.278;18.192;2023-04-01T10:08:45;4.90;;;2.00;;
76795;SDS011;65745;50.278;18.192;2023-04-01T10:14:42;2.70;;;2.00;;
76795;SDS011;65745;50.278;18.192;2023-04-01T10:17:51;1.90;;;1.40;;
76795;SDS011;65745;50.278;18.192;2023-04-01T10:20:43;2.40;;;1.90;;
76795;SDS011;65745;50.278;18.192;2023-04-01T10:23:36;2.10;;;1.80;;
76795;SDS011;65745;50.278;18.192;2023-04-01T10:26:33;2.00;;;1.70;;
76795;SDS011;65745;50.278;18.192;2023-04-01T10:29:52;2.90;;;1.90;;
76795;SDS011;65745;50.278;18.192;2023-04-01T10:36:04;3.10;;;2.10;;
76795;SDS011;65745;50.278;18.192;2023-04-01T10:38:59;2.60;;;1.70;;
76795;SDS011;65745;50.278;18.192;2023-04-01T10:41:58;3.10;;;1.90;;
76795;SDS011;65745;50.278;18.192;2023-04-01T10:45:26;1.80;;;1.60;;
76795;SDS011;65745;50.278;18.192;2023-04-01T10:48:29;2.80;;;2.10;;
76795;SDS011;65745;50.278;18.192;2023-04-01T10:51:34;2.70;;;1.90;;
76795;SDS011;65745;50.278;18.192;2023-04-01T10:54:45;4.40;;;2.10;;
76795;SDS011;65745;50.278;18.192;2023-04-01T11:01:55;2.80;;;2.00;;
76795;SDS011;65745;50.278;18.192;2023-04-01T11:14:40;2.20;;;1.70;;
76795;SDS011;65745;50.278;18.192;2023-04-01T11:23:45;1.80;;;1.40;;
76795;SDS011;65745;50.278;18.192;2023-04-01T11:26:41;3.30;;;1.80;;
76795;SDS011;65745;50.278;18.192;2023-04-01T11:32:49;2.40;;;1.80;;
76795;SDS011;65745;50.278;18.192;2023-04-01T11:35:38;2.30;;;1.80;;
76795;SDS011;65745;50.278;18.192;2023-04-01T11:38:33;5.00;;;2.10;;
76795;SDS011;65745;50.278;18.192;2023-04-01T11:41:43;2.50;;;2.00;;
76795;SDS011;65745;50.278;18.192;2023-04-01T11:44:56;3.80;;;2.00;;
76795;SDS011;65745;50.278;18.192;2023-04-01T11:47:51;3.10;;;2.00;;
76795;SDS011;65745;50.278;18.192;2023-04-01T11:50:41;3.10;;;1.90;;
76795;SDS011;65745;50.278;18.192;2023-04-01T11:53:33;2.60;;;2.20;;
76795;SDS011;65745;50.278;18.192;2023-04-01T11:56:17;3.50;;;2.40;;
76795;SDS011;65745;50.278;18.192;2023-04-01T12:02:10;3.70;;;2.50;;
76795;SDS011;65745;50.278;18.192;2023-04-01T12:04:52;4.70;;;2.40;;
76795;SDS011;65745;50.278;18.192;2023-04-01T12:10:33;4.10;;;3.30;;
76795;SDS011;65745;50.278;18.192;2023-04-01T12:13:12;4.10;;;3.60;;
76795;SDS011;65745;50.278;18.192;2023-04-01T12:15:58;9.70;;;9.00;;
76795;SDS011;65745;50.278;18.192;2023-04-01T12:18:46;5.40;;;4.90;;
76795;SDS011;65745;50.278;18.192;2023-04-01T12:21:24;7.10;;;6.40;;
76795;SDS011;65745;50.278;18.192;2023-04-01T12:24:13;10.30;;;9.30;;
76795;SDS011;65745;50.278;18.192;2023-04-01T12:27:06;13.80;;;12.80;;
76795;SDS011;65745;50.278;18.192;2023-04-01T12:29:53;13.20;;;12.10;;
76795;SDS011;65745;50.278;18.192;2023-04-01T12:32:49;13.00;;;12.20;;
76795;SDS011;65745;50.278;18.192;2023-04-01T12:35:32;7.40;;;6.50;;
76795;SDS011;65745;50.278;18.192;2023-04-01T12:38:19;3.80;;;3.30;;
76795;SDS011;65745;50.278;18.192;2023-04-01T12:41:09;5.10;;;3.70;;
76795;SDS011;65745;50.278;18.192;2023-04-01T12:43:52;4.10;;;3.80;;
76795;SDS011;65745;50.278;18.192;2023-04-01T12:46:38;25.80;;;16.10;;
76795;SDS011;65745;50.278;18.192;2023-04-01T12:49:30;57.00;;;25.40;;
76795;SDS011;65745;50.278;18.192;2023-04-01T12:52:15;29.90;;;15.00;;
76795;SDS011;65745;50.278;18.192;2023-04-01T12:58:00;63.10;;;28.70;;
76795;SDS011;65745;50.278;18.192;2023-04-01T13:00:52;9.40;;;5.70;;
76795;SDS011;65745;50.278;18.192;2023-04-01T13:03:40;15.50;;;11.40;;
76795;SDS011;65745;50.278;18.192;2023-04-01T13:06:29;12.20;;;7.90;;
76795;SDS011;65745;50.278;18.192;2023-04-01T13:09:13;10.20;;;7.90;;
76795;SDS011;65745;50.278;18.192;2023-04-01T13:12:04;7.10;;;4.60;;
76795;SDS011;65745;50.278;18.192;2023-04-01T13:14:57;6.30;;;5.10;;
76795;SDS011;65745;50.278;18.192;2023-04-01T13:17:43;7.10;;;5.10;;
76795;SDS011;65745;50.278;18.192;2023-04-01T13:20:26;10.10;;;7.70;;
76795;SDS011;65745;50.278;18.192;2023-04-01T13:23:09;6.30;;;3.30;;
76795;SDS011;65745;50.278;18.192;2023-04-01T13:28:45;6.00;;;4.40;;
76795;SDS011;65745;50.278;18.192;2023-04-01T13:31:28;6.10;;;3.10;;
76795;SDS011;65745;50.278;18.192;2023-04-01T13:34:13;5.20;;;3.80;;
76795;SDS011;65745;50.278;18.192;2023-04-01T13:36:58;4.80;;;3.60;;
76795;SDS011;65745;50.278;18.192;2023-04-01T13:39:45;6.90;;;3.90;;
76795;SDS011;65745;50.278;18.192;2023-04-01T13:42:28;4.00;;;2.90;;
76795;SDS011;65745;50.278;18.192;2023-04-01T13:45:09;6.60;;;3.90;;
76795;SDS011;65745;50.278;18.192;2023-04-01T13:47:53;6.00;;;3.90;;
76795;SDS011;65745;50.278;18.192;2023-04-01T13:53:53;4.00;;;2.90;;
76795;SDS011;65745;50.278;18.192;2023-04-01T13:56:40;3.90;;;2.80;;
76795;SDS011;65745;50.278;18.192;2023-04-01T13:59:34;6.40;;;3.80;;
76795;SDS011;65745;50.278;18.192;2023-04-01T14:02:32;3.90;;;3.30;;
76795;SDS011;65745;50.278;18.192;2023-04-01T14:08:32;4.00;;;2.90;;
76795;SDS011;65745;50.278;18.192;2023-04-01T14:11:21;5.60;;;2.80;;
76795;SDS011;65745;50.278;18.192;2023-04-01T14:14:06;3.80;;;2.90;;
76795;SDS011;65745;50.278;18.192;2023-04-01T14:20:00;3.60;;;2.50;;
76795;SDS011;65745;50.278;18.192;2023-04-01T14:22:56;2.90;;;2.60;;
76795;SDS011;65745;50.278;18.192;2023-04-01T14:28:46;2.40;;;1.80;;
76795;SDS011;65745;50.278;18.192;2023-04-01T14:31:30;2.20;;;1.70;;
76795;SDS011;65745;50.278;18.192;2023-04-01T14:34:12;2.40;;;2.10;;
76795;SDS011;65745;50.278;18.192;2023-04-01T14:46:28;3.80;;;2.40;;
76795;SDS011;65745;50.278;18.192;2023-04-01T14:49:29;3.20;;;2.10;;
76795;SDS011;65745;50.278;18.192;2023-04-01T14:52:05;3.00;;;2.30;;
76795;SDS011;65745;50.278;18.192;2023-04-01T14:54:44;3.60;;;2.40;;
76795;SDS011;65745;50.278;18.192;2023-04-01T15:00:00;3.20;;;1.80;;
76795;SDS011;65745;50.278;18.192;2023-04-01T15:02:46;3.50;;;2.30;;
76795;SDS011;65745;50.278;18.192;2023-04-01T15:05:31;5.60;;;4.00;;
76795;SDS011;65745;50.278;18.192;2023-04-01T15:08:15;5.20;;;3.70;;
76795;SDS011;65745;50.278;18.192;2023-04-01T15:10:52;8.50;;;5.40;;
76795;SDS011;65745;50.278;18.192;2023-04-01T15:16:55;11.50;;;8.00;;
76795;SDS011;65745;50.278;18.192;2023-04-01T15:19:41;8.70;;;6.40;;
76795;SDS011;65745;50.278;18.192;2023-04-01T15:22:35;6.90;;;5.60;;
76795;SDS011;65745;50.278;18.192;2023-04-01T15:25:33;6.80;;;4.80;;
76795;SDS011;65745;50.278;18.192;2023-04-01T15:28:19;13.20;;;9.40;;
76795;SDS011;65745;50.278;18.192;2023-04-01T15:31:00;6.20;;;4.50;;
76795;SDS011;65745;50.278;18.192;2023-04-01T15:33:42;6.10;;;3.40;;
76795;SDS011;65745;50.278;18.192;2023-04-01T15:36:28;21.30;;;11.20;;
76795;SDS011;65745;50.278;18.192;2023-04-01T15:39:14;32.70;;;17.00;;
76795;SDS011;65745;50.278;18.192;2023-04-01T15:42:01;69.00;;;31.40;;
76795;SDS011;65745;50.278;18.192;2023-04-01T15:44:54;157.60;;;66.00;;
76795;SDS011;65745;50.278;18.192;2023-04-01T15:47:35;78.70;;;33.70;;
76795;SDS011;65745;50.278;18.192;2023-04-01T15:50:34;61.90;;;28.40;;
76795;SDS011;65745;50.278;18.192;2023-04-01T15:53:27;166.90;;;62.80;;
76795;SDS011;65745;50.278;18.192;2023-04-01T15:56:22;36.80;;;18.50;;
76795;SDS011;65745;50.278;18.192;2023-04-01T15:59:01;23.90;;;13.80;;
76795;SDS011;65745;50.278;18.192;2023-04-01T16:01:46;12.20;;;8.00;;
76795;SDS011;65745;50.278;18.192;2023-04-01T16:04:31;16.40;;;13.30;;
76795;SDS011;65745;50.278;18.192;2023-04-01T16:07:21;33.50;;;24.90;;
76795;SDS011;65745;50.278;18.192;2023-04-01T16:10:21;15.30;;;13.20;;
76795;SDS011;65745;50.278;18.192;2023-04-01T16:13:14;12.20;;;10.70;;
76795;SDS011;65745;50.278;18.192;2023-04-01T16:16:00;11.00;;;9.40;;
76795;SDS011;65745;50.278;18.192;2023-04-01T16:18:46;18.90;;;14.20;;
76795;SDS011;65745;50.278;18.192;2023-04-01T16:21:37;15.10;;;11.60;;
76795;SDS011;65745;50.278;18.192;2023-04-01T16:24:17;10.20;;;9.20;;
76795;SDS011;65745;50.278;18.192;2023-04-01T16:26:55;10.40;;;9.40;;
76795;SDS011;65745;50.278;18.192;2023-04-01T16:29:35;21.50;;;19.30;;
76795;SDS011;65745;50.278;18.192;2023-04-01T16:32:17;17.30;;;15.10;;
76795;SDS011;65745;50.278;18.192;2023-04-01T16:38:01;27.00;;;20.50;;
76795;SDS011;65745;50.278;18.192;2023-04-01T16:40:42;31.30;;;19.50;;
76795;SDS011;65745;50.278;18.192;2023-04-01T16:43:21;45.80;;;26.10;;
76795;SDS011;65745;50.278;18.192;2023-04-01T16:49:09;18.80;;;15.30;;
76795;SDS011;65745;50.278;18.192;2023-04-01T16:51:57;7.60;;;5.70;;
76795;SDS011;65745;50.278;18.192;2023-04-01T16:54:50;7.40;;;5.20;;
76795;SDS011;65745;50.278;18.192;2023-04-01T16:57:27;8.40;;;6.20;;
76795;SDS011;65745;50.278;18.192;2023-04-01T17:00:15;12.70;;;6.80;;
76795;SDS011;65745;50.278;18.192;2023-04-01T17:02:55;20.90;;;9.80;;
76795;SDS011;65745;50.278;18.192;2023-04-01T17:05:50;22.70;;;11.10;;
76795;SDS011;65745;50.278;18.192;2023-04-01T17:08:42;15.80;;;5.40;;
76795;SDS011;65745;50.278;18.192;2023-04-01T17:11:23;8.90;;;4.00;;
76795;SDS011;65745;50.278;18.192;2023-04-01T17:14:00;14.40;;;5.90;;
76795;SDS011;65745;50.278;18.192;2023-04-01T17:16:50;7.30;;;3.40;;
76795;SDS011;65745;50.278;18.192;2023-04-01T17:19:41;3.70;;;2.40;;
76795;SDS011;65745;50.278;18.192;2023-04-01T17:22:25;7.80;;;4.00;;
76795;SDS011;65745;50.278;18.192;2023-04-01T17:25:12;9.50;;;4.00;;
76795;SDS011;65745;50.278;18.192;2023-04-01T17:27:56;7.70;;;3.90;;
76795;SDS011;65745;50.278;18.192;2023-04-01T17:30:35;5.90;;;3.40;;
76795;SDS011;65745;50.278;18.192;2023-04-01T17:33:17;5.80;;;3.60;;
76795;SDS011;65745;50.278;18.192;2023-04-01T17:36:16;4.90;;;3.10;;
76795;SDS011;65745;50.278;18.192;2023-04-01T17:39:13;4.40;;;3.30;;
76795;SDS011;65745;50.278;18.192;2023-04-01T17:42:04;5.00;;;3.50;;
76795;SDS011;65745;50.278;18.192;2023-04-01T17:44:44;5.90;;;4.30;;
76795;SDS011;65745;50.278;18.192;2023-04-01T17:50:22;7.50;;;4.40;;
76795;SDS011;65745;50.278;18.192;2023-04-01T17:53:03;6.40;;;4.80;;
76795;SDS011;65745;50.278;18.192;2023-04-01T17:55:50;7.80;;;4.80;;
76795;SDS011;65745;50.278;18.192;2023-04-01T17:58:35;7.40;;;4.80;;
76795;SDS011;65745;50.278;18.192;2023-04-01T18:01:18;8.60;;;5.10;;
76795;SDS011;65745;50.278;18.192;2023-04-01T18:07:33;6.10;;;4.30;;